Time;durP1;ratioP1;P1;durP2;ratioP2;P2;SDS_P1;SDS_P2;PMS_P1;PMS_P2;Temp;Humidity;BMP_temperature;BMP_pressure;BME280_temperature;BME280_humidity;BME280_pressure;Samples;Min_cycle;Max_cycle;Signal;HPM_P1;HPM_P2
2023/11/09 00:00:59;;;;;;;3.23;1.43;;;;;;;11.09;82.28;99712.19;5037517;28;20231;-84
2023/11/09 00:03:27;;;;;;;2.33;1.50;;;;;;;11.25;82.01;99676.81;5037285;28;20705;-83
2023/11/09 00:05:54;;;;;;;1.30;1.20;;;;;;;11.36;81.90;99662.53;5040474;28;20766;-82
2023/11/09 00:08:21;;;;;;;1.40;1.10;;;;;;;11.49;81.91;99663.81;5057136;28;20206;-84
2023/11/09 00:10:47;;;;;;;1.43;1.30;;;;;;;11.45;82.00;99667.44;5056655;28;20352;-83
2023/11/09 00:13:14;;;;;;;1.77;1.30;;;;;;;11.49;81.73;99667.25;5056950;28;20693;-83
2023/11/09 00:15:40;;;;;;;1.73;1.30;;;;;;;11.55;80.85;99660.13;5056436;28;20199;-83
2023/11/09 00:18:06;;;;;;;1.87;1.37;;;;;;;11.60;81.14;99669.53;5057390;28;20211;-84
2023/11/09 00:20:35;;;;;;;3.17;1.20;;;;;;;11.67;81.18;99667.53;5049048;28;20238;-84
2023/11/09 00:23:01;;;;;;;1.40;1.10;;;;;;;11.50;82.39;99655.06;5036086;28;20234;-84
2023/11/09 00:25:28;;;;;;;2.17;1.40;;;;;;;11.39;83.01;99636.31;5037337;28;20238;-84
2023/11/09 00:27:54;;;;;;;1.57;1.13;;;;;;;11.49;83.82;99607.16;5036146;28;20211;-82
2023/11/09 00:30:20;;;;;;;1.47;1.37;;;;;;;11.50;83.83;99587.13;5036815;28;20227;-83
2023/11/09 00:32:47;;;;;;;1.50;1.40;;;;;;;11.53;84.10;99581.78;5036344;28;20583;-84
2023/11/09 00:35:13;;;;;;;1.90;1.30;;;;;;;11.43;84.87;99565.56;5037008;28;20212;-84
2023/11/09 00:37:41;;;;;;;1.83;1.63;;;;;;;11.41;84.97;99541.25;5036056;28;20229;-84
2023/11/09 00:40:10;;;;;;;1.23;1.10;;;;;;;11.45;84.95;99529.78;5036445;28;20232;-84
2023/11/09 00:42:37;;;;;;;1.47;1.37;;;;;;;11.33;85.35;99515.41;5037336;28;20617;-83
2023/11/09 00:45:04;;;;;;;1.43;1.30;;;;;;;11.38;86.10;99504.81;5056775;28;20249;-84
2023/11/09 00:47:31;;;;;;;2.90;1.37;;;;;;;11.41;86.45;99483.78;5056385;28;20216;-81
2023/11/09 00:49:58;;;;;;;1.80;1.30;;;;;;;11.29;87.21;99468.56;5053268;28;20588;-83
2023/11/09 00:52:25;;;;;;;2.07;1.37;;;;;;;11.30;86.96;99458.06;5036289;28;20211;-84
2023/11/09 00:54:52;;;;;;;1.87;1.23;;;;;;;11.35;87.16;99449.19;5043459;28;20209;-82
2023/11/09 00:57:20;;;;;;;1.37;1.27;;;;;;;11.35;87.66;99436.13;5043358;28;20204;-84
2023/11/09 00:59:48;;;;;;;2.67;1.50;;;;;;;11.34;87.98;99422.22;5035392;28;20228;-83
2023/11/09 01:02:14;;;;;;;1.83;1.70;;;;;;;11.36;87.59;99419.53;5036272;28;20217;-83
2023/11/09 01:04:41;;;;;;;1.47;1.37;;;;;;;11.31;87.54;99420.56;5035811;28;20225;-84
2023/11/09 01:07:09;;;;;;;1.37;1.27;;;;;;;11.36;87.17;99424.75;5035941;28;20213;-83
2023/11/09 01:09:37;;;;;;;2.07;1.23;;;;;;;11.12;88.29;99420.44;5036243;28;20233;-83
2023/11/09 01:12:05;;;;;;;1.93;1.20;;;;;;;11.22;88.11;99396.53;5036629;28;20205;-84
2023/11/09 01:14:32;;;;;;;1.20;1.20;;;;;;;11.09;89.18;99385.72;5035946;28;20201;-83
2023/11/09 01:16:58;;;;;;;2.00;1.33;;;;;;;11.12;89.53;99362.97;5036161;28;20203;-84
2023/11/09 01:19:24;;;;;;;1.27;1.17;;;;;;;11.08;89.23;99364.00;5035933;28;20198;-84
2023/11/09 01:21:51;;;;;;;1.60;1.27;;;;;;;10.99;89.41;99366.09;5035425;28;20592;-84
2023/11/09 01:24:18;;;;;;;1.60;1.40;;;;;;;11.10;89.41;99356.94;5036604;28;20207;-83
2023/11/09 01:26:44;;;;;;;1.90;1.70;;;;;;;11.07;90.23;99346.63;5038166;28;20320;-84
2023/11/09 01:29:13;;;;;;;1.93;1.40;;;;;;;11.01;90.75;99323.34;5069316;28;20203;-80
2023/11/09 01:31:40;;;;;;;2.20;1.60;;;;;;;11.01;90.61;99319.91;5073114;28;20260;-81
2023/11/09 01:34:06;;;;;;;1.57;1.47;;;;;;;10.98;90.83;99309.56;5053790;28;20190;-80
2023/11/09 01:36:33;;;;;;;4.80;1.80;;;;;;;11.06;90.94;99305.75;5053147;28;20231;-79
2023/11/09 01:38:59;;;;;;;2.87;1.47;;;;;;;11.11;90.08;99302.94;5054003;28;20668;-80
2023/11/09 01:41:26;;;;;;;4.20;1.50;;;;;;;11.15;89.96;99301.91;5044406;28;20232;-83
2023/11/09 01:43:56;;;;;;;1.60;1.50;;;;;;;11.17;89.86;99312.31;5026768;28;20214;-84
2023/11/09 01:46:24;;;;;;;1.47;1.37;;;;;;;11.13;89.94;99312.41;5028563;28;20232;-81
2023/11/09 01:48:51;;;;;;;1.37;1.27;;;;;;;11.06;90.18;99300.53;5056568;28;20211;-81
2023/11/09 01:51:18;;;;;;;1.60;1.37;;;;;;;11.19;89.04;99313.94;5044907;28;20239;-83
2023/11/09 01:53:45;;;;;;;3.67;1.60;;;;;;;11.12;88.72;99315.97;5039542;28;20598;-83
2023/11/09 01:56:14;;;;;;;3.50;1.63;;;;;;;11.17;89.07;99315.75;5038666;28;20200;-82
2023/11/09 01:58:41;;;;;;;1.60;1.30;;;;;;;11.08;89.40;99319.59;5038398;28;20205;-83
2023/11/09 02:01:12;;;;;;;2.43;1.30;;;;;;;11.06;89.63;99315.31;5034526;28;20588;-83
2023/11/09 02:03:41;;;;;;;1.87;1.10;;;;;;;11.03;89.37;99312.84;5053009;28;20205;-83
2023/11/09 02:06:09;;;;;;;2.07;1.40;;;;;;;11.09;89.17;99304.78;5059043;28;20233;-83
2023/11/09 02:08:36;;;;;;;1.87;1.37;;;;;;;11.05;89.42;99314.47;5060667;28;20260;-82
2023/11/09 02:11:03;;;;;;;1.40;1.30;;;;;;;11.05;89.91;99290.97;5060794;28;20225;-83
2023/11/09 02:13:30;;;;;;;1.67;1.43;;;;;;;11.00;90.12;99285.09;5060565;28;20198;-82
2023/11/09 02:15:56;;;;;;;1.90;1.40;;;;;;;10.77;90.87;99267.72;5060089;28;20210;-85
2023/11/09 02:18:23;;;;;;;2.20;1.10;;;;;;;10.68;91.57;99257.63;5061106;28;20267;-85
2023/11/09 02:20:52;;;;;;;1.50;1.40;;;;;;;10.80;91.11;99240.63;5050449;28;20233;-84
2023/11/09 02:23:20;;;;;;;2.73;1.47;;;;;;;10.52;92.54;99229.53;5040416;28;20203;-85
2023/11/09 02:25:49;;;;;;;2.83;1.50;;;;;;;10.67;92.38;99212.41;5040587;28;20638;-83
2023/11/09 02:28:15;;;;;;;2.30;1.50;;;;;;;10.72;91.93;99215.72;5055327;28;20210;-81
2023/11/09 02:30:41;;;;;;;1.67;1.20;;;;;;;10.64;92.41;99201.25;5039098;28;20226;-82
2023/11/09 02:33:08;;;;;;;3.17;1.30;;;;;;;10.55;92.84;99196.41;5036258;28;20633;-81
2023/11/09 02:35:37;;;;;;;2.17;1.33;;;;;;;10.66;92.72;99186.38;5036001;28;20206;-79
2023/11/09 02:38:03;;;;;;;1.97;1.70;;;;;;;10.73;91.92;99193.91;5035201;28;20234;-83
2023/11/09 02:40:30;;;;;;;1.63;1.47;;;;;;;10.81;91.75;99201.44;5038016;28;20233;-83
2023/11/09 02:42:57;;;;;;;1.30;1.20;;;;;;;10.82;91.61;99199.66;5037142;28;20214;-84
2023/11/09 02:45:24;;;;;;;1.87;1.60;;;;;;;10.56;92.39;99200.69;5035711;28;20229;-80
2023/11/09 02:47:50;;;;;;;2.43;1.60;;;;;;;10.69;92.33;99191.47;5034878;28;20290;-82
2023/11/09 02:50:17;;;;;;;5.23;1.47;;;;;;;10.75;92.06;99199.06;5036073;28;20607;-82
2023/11/09 02:52:43;;;;;;;1.70;1.60;;;;;;;10.71;91.60;99200.94;5035913;28;20243;-82
2023/11/09 02:55:10;;;;;;;1.40;1.23;;;;;;;10.77;91.59;99206.84;5055530;28;20319;-83
2023/11/09 02:57:36;;;;;;;1.77;1.67;;;;;;;10.78;91.40;99213.75;5055540;28;20693;-83
2023/11/09 03:00:06;;;;;;;1.83;1.50;;;;;;;10.70;90.62;99220.13;5054801;28;20222;-81
2023/11/09 03:02:34;;;;;;;1.77;1.23;;;;;;;10.71;91.18;99207.94;5056098;28;20206;-83
2023/11/09 03:05:01;;;;;;;1.80;1.40;;;;;;;10.59;92.11;99190.16;5054654;28;20206;-82
2023/11/09 03:07:27;;;;;;;1.77;1.67;;;;;;;10.75;91.68;99195.63;5054255;28;20205;-82
2023/11/09 03:09:54;;;;;;;1.50;1.40;;;;;;;10.73;91.39;99193.91;5054405;28;20235;-80
2023/11/09 03:12:21;;;;;;;1.90;1.43;;;;;;;10.67;91.65;99188.09;5055362;28;20209;-79
2023/11/09 03:14:47;;;;;;;2.50;1.60;;;;;;;10.76;91.10;99194.69;5046690;28;20684;-83
2023/11/09 03:17:15;;;;;;;1.37;1.27;;;;;;;10.77;91.40;99185.97;5031393;28;20211;-81
2023/11/09 03:19:41;;;;;;;1.93;1.83;;;;;;;10.82;91.60;99186.59;5047613;28;20314;-81
2023/11/09 03:22:10;;;;;;;1.73;1.50;;;;;;;10.70;91.14;99186.22;5037343;28;20202;-82
2023/11/09 03:24:37;;;;;;;1.70;1.53;;;;;;;10.75;90.99;99190.38;5055239;28;20239;-81
2023/11/09 03:27:05;;;;;;;2.03;1.33;;;;;;;10.80;90.05;99202.34;5054003;28;20229;-81
2023/11/09 03:29:31;;;;;;;1.53;1.43;;;;;;;10.81;89.89;99211.88;5054626;28;20222;-82
2023/11/09 03:31:57;;;;;;;1.90;1.63;;;;;;;10.72;90.90;99194.81;5054653;28;20206;-81
2023/11/09 03:34:25;;;;;;;1.80;1.50;;;;;;;10.78;90.67;99200.69;5055273;28;20217;-83
2023/11/09 03:36:53;;;;;;;1.20;1.10;;;;;;;10.65;90.41;99193.34;5053672;28;20224;-82
2023/11/09 03:39:20;;;;;;;1.80;1.40;;;;;;;10.69;90.44;99192.31;5054381;28;20209;-84
2023/11/09 03:41:47;;;;;;;1.43;1.33;;;;;;;10.74;90.08;99184.31;5055866;28;20211;-81
2023/11/09 03:44:13;;;;;;;2.33;1.60;;;;;;;10.71;90.26;99182.66;5055966;28;20197;-82
2023/11/09 03:46:39;;;;;;;2.27;1.50;;;;;;;10.59;90.66;99180.56;5053915;28;20226;-83
2023/11/09 03:49:07;;;;;;;2.47;1.70;;;;;;;10.52;91.66;99158.22;5054166;28;20206;-80
2023/11/09 03:51:35;;;;;;;1.60;1.50;;;;;;;10.56;91.22;99151.97;5039980;28;20280;-84
2023/11/09 03:54:03;;;;;;;3.30;1.67;;;;;;;10.50;91.23;99128.72;5035752;28;20571;-83
2023/11/09 03:56:29;;;;;;;1.70;1.50;;;;;;;10.44;92.10;99131.56;5035017;28;20238;-82
2023/11/09 03:58:55;;;;;;;1.50;1.40;;;;;;;10.57;92.00;99130.19;5026442;28;20222;-81
2023/11/09 04:01:22;;;;;;;2.73;1.83;;;;;;;10.55;91.35;99139.00;5033522;28;20218;-82
2023/11/09 04:03:49;;;;;;;2.27;1.90;;;;;;;10.57;91.60;99126.75;5034012;28;20276;-81
2023/11/09 04:06:17;;;;;;;2.13;1.40;;;;;;;10.49;91.29;99124.44;5034303;28;20218;-82
2023/11/09 04:08:46;;;;;;;1.77;1.50;;;;;;;10.31;90.58;99128.63;5034550;28;20706;-82
2023/11/09 04:11:12;;;;;;;1.63;1.53;;;;;;;10.30;91.73;99119.91;5032937;28;20245;-80
2023/11/09 04:13:39;;;;;;;1.87;1.30;;;;;;;10.39;91.19;99117.88;5033454;28;20226;-82
2023/11/09 04:16:06;;;;;;;1.60;1.50;;;;;;;10.44;90.54;99126.34;5033441;28;20234;-81
2023/11/09 04:18:33;;;;;;;1.60;1.40;;;;;;;10.47;90.50;99132.31;5033687;28;20213;-81
2023/11/09 04:20:59;;;;;;;2.80;1.67;;;;;;;10.39;90.66;99133.53;5033050;28;20236;-81
2023/11/09 04:23:26;;;;;;;2.17;1.50;;;;;;;10.44;90.68;99118.53;5033964;28;20210;-82
2023/11/09 04:25:54;;;;;;;2.80;1.30;;;;;;;10.53;90.02;99129.47;5034572;28;20226;-81
2023/11/09 04:28:20;;;;;;;2.97;1.40;;;;;;;10.51;90.24;99131.28;5029112;28;20201;-81
2023/11/09 04:30:50;;;;;;;2.03;1.33;;;;;;;10.63;90.41;99126.50;5052787;28;20730;-81
2023/11/09 04:33:17;;;;;;;1.50;1.40;;;;;;;10.39;90.19;99136.16;5054909;28;20233;-84
2023/11/09 04:35:46;;;;;;;1.67;1.53;;;;;;;10.48;89.94;99127.94;5037703;28;20206;-83
2023/11/09 04:38:15;;;;;;;1.40;1.30;;;;;;;10.58;89.26;99139.69;5035016;28;20256;-81
2023/11/09 04:40:41;;;;;;;1.47;1.33;;;;;;;10.46;88.39;99156.69;5033115;28;20222;-81
2023/11/09 04:43:11;;;;;;;2.83;1.33;;;;;;;10.47;88.74;99149.72;5032737;28;20206;-81
2023/11/09 04:45:41;;;;;;;1.70;1.37;;;;;;;10.08;89.61;99143.34;5031611;28;20211;-81
2023/11/09 04:48:09;;;;;;;3.27;2.07;;;;;;;10.25;90.55;99107.97;5053069;28;20680;-81
2023/11/09 04:50:38;;;;;;;2.13;1.70;;;;;;;10.24;90.58;99101.03;5045288;28;20234;-80
2023/11/09 04:53:17;;;;;;;1.60;1.50;;;;;;;10.16;90.14;99114.38;5034346;28;20597;-83
2023/11/09 04:55:53;;;;;;;2.17;1.40;;;;;;;10.37;90.07;99117.09;5053076;28;20792;-81
2023/11/09 05:06:52;;;;;;;1.60;1.50;;;;;;;10.13;90.92;99107.53;5031733;28;20240;-81
2023/11/09 05:09:19;;;;;;;2.23;1.40;;;;;;;10.27;90.12;99113.97;5025021;28;20294;-84
2023/11/09 05:11:46;;;;;;;3.37;1.80;;;;;;;10.25;89.52;99107.97;5033517;28;20910;-84
2023/11/09 05:14:14;;;;;;;1.83;1.43;;;;;;;10.37;89.86;99096.22;5030967;28;20202;-83
2023/11/09 05:16:41;;;;;;;2.40;1.53;;;;;;;10.43;89.44;99103.81;5060230;28;20212;-84
2023/11/09 05:19:08;;;;;;;1.93;1.57;;;;;;;10.39;88.90;99113.50;5054630;28;20206;-84
2023/11/09 05:21:35;;;;;;;2.03;1.30;;;;;;;10.49;88.87;99127.03;5037058;28;20238;-83
2023/11/09 05:24:02;;;;;;;2.27;1.53;;;;;;;10.48;88.43;99123.56;5035375;28;20214;-84
2023/11/09 05:26:32;;;;;;;2.77;1.70;;;;;;;10.53;88.60;99136.44;5038845;28;20615;-83
2023/11/09 05:28:58;;;;;;;5.43;1.63;;;;;;;10.44;87.68;99135.03;5039214;28;20206;-84
2023/11/09 05:31:26;;;;;;;3.03;1.63;;;;;;;10.53;87.38;99145.09;5038231;28;20226;-84
2023/11/09 05:33:54;;;;;;;1.80;1.63;;;;;;;10.65;86.75;99158.59;5039187;28;20206;-84
2023/11/09 05:36:22;;;;;;;2.37;1.53;;;;;;;10.43;86.55;99172.47;5038347;28;20716;-83
2023/11/09 05:38:49;;;;;;;2.17;1.63;;;;;;;10.47;86.59;99165.38;5039297;28;20217;-84
2023/11/09 05:41:16;;;;;;;2.37;1.60;;;;;;;10.57;86.57;99174.53;5039754;28;20252;-84
2023/11/09 05:43:43;;;;;;;1.60;1.50;;;;;;;10.55;86.04;99188.56;5047456;28;20190;-82
2023/11/09 05:46:09;;;;;;;1.73;1.63;;;;;;;10.36;86.17;99204.06;5052341;28;20221;-84
2023/11/09 05:48:37;;;;;;;2.57;1.57;;;;;;;10.50;86.56;99183.50;5040227;28;20210;-84
2023/11/09 05:51:04;;;;;;;3.00;1.97;;;;;;;10.53;86.53;99186.00;5036206;28;20233;-83
2023/11/09 05:53:30;;;;;;;1.90;1.57;;;;;;;10.55;86.78;99185.97;5038204;28;20226;-83
2023/11/09 05:55:58;;;;;;;2.87;1.93;;;;;;;10.45;86.40;99190.69;5037097;28;20214;-82
2023/11/09 05:58:24;;;;;;;3.90;1.73;;;;;;;10.35;85.92;99195.41;5038374;28;20205;-83
2023/11/09 06:00:52;;;;;;;1.87;1.70;;;;;;;10.40;85.94;99205.66;5030608;28;20222;-84
2023/11/09 06:03:18;;;;;;;1.67;1.57;;;;;;;10.48;85.20;99203.59;5058368;28;20228;-83
2023/11/09 06:05:46;;;;;;;2.07;1.63;;;;;;;10.67;85.10;99225.47;5058282;28;20217;-82
2023/11/09 06:08:12;;;;;;;1.73;1.53;;;;;;;10.59;84.47;99229.28;5047316;28;20237;-82
2023/11/09 06:10:39;;;;;;;3.83;1.63;;;;;;;10.48;83.69;99242.72;5038405;28;20228;-84
2023/11/09 06:13:05;;;;;;;2.10;1.77;;;;;;;10.65;83.99;99235.09;5038794;28;20207;-84
2023/11/09 06:15:32;;;;;;;1.70;1.60;;;;;;;10.71;84.50;99234.88;5041975;28;20229;-84
2023/11/09 06:17:58;;;;;;;1.50;1.40;;;;;;;10.75;84.34;99224.31;5042831;28;20212;-81
2023/11/09 06:20:26;;;;;;;1.93;1.50;;;;;;;10.74;85.22;99213.00;5038487;28;20221;-85
2023/11/09 06:22:54;;;;;;;1.73;1.43;;;;;;;10.69;83.98;99223.63;5053775;28;20207;-83
2023/11/09 06:25:20;;;;;;;2.33;1.67;;;;;;;10.73;84.17;99225.22;5058314;28;20270;-82
2023/11/09 06:27:47;;;;;;;3.00;1.70;;;;;;;10.71;83.50;99240.09;5050989;28;20237;-84
2023/11/09 06:30:13;;;;;;;2.07;1.70;;;;;;;10.66;83.89;99249.88;5052137;28;20249;-85
2023/11/09 06:32:41;;;;;;;3.10;1.90;;;;;;;10.75;83.39;99243.44;5037062;28;20206;-86
2023/11/09 06:35:13;;;;;;;1.50;1.40;;;;;;;10.64;83.21;99246.44;5036122;28;20217;-88
2023/11/09 06:37:41;;;;;;;3.13;1.60;;;;;;;10.69;83.35;99256.72;5036852;28;20206;-86
2023/11/09 06:40:10;;;;;;;2.90;1.80;;;;;;;10.76;83.66;99239.91;5038110;28;20237;-85
2023/11/09 06:42:37;;;;;;;1.70;1.60;;;;;;;10.71;83.53;99252.28;5056154;28;20201;-84
2023/11/09 06:45:05;;;;;;;2.40;1.40;;;;;;;10.65;83.03;99253.38;5056691;28;20296;-84
2023/11/09 06:47:31;;;;;;;3.03;1.47;;;;;;;10.80;82.65;99238.03;5043907;28;20231;-83
2023/11/09 06:49:58;;;;;;;1.90;1.43;;;;;;;10.68;83.65;99245.44;5034553;28;20229;-85
2023/11/09 06:52:25;;;;;;;1.60;1.40;;;;;;;10.62;82.82;99252.63;5045032;28;20315;-84
2023/11/09 06:54:51;;;;;;;2.57;1.50;;;;;;;10.76;82.99;99266.00;5035670;28;20216;-85
2023/11/09 06:57:19;;;;;;;1.40;1.30;;;;;;;10.77;83.06;99257.28;5056467;28;20228;-85
2023/11/09 06:59:46;;;;;;;2.90;1.60;;;;;;;10.70;82.51;99272.34;5056608;28;20229;-84
2023/11/09 07:02:12;;;;;;;2.10;1.50;;;;;;;10.67;83.72;99258.53;5038591;28;20211;-84
2023/11/09 07:04:39;;;;;;;2.30;1.50;;;;;;;10.75;83.04;99266.94;5050500;28;20206;-82
2023/11/09 07:07:06;;;;;;;2.43;1.33;;;;;;;10.67;82.84;99258.53;5039477;28;20226;-85
2023/11/09 07:09:33;;;;;;;1.40;1.30;;;;;;;10.71;82.91;99279.25;5038238;28;20264;-85
2023/11/09 07:12:00;;;;;;;2.43;1.70;;;;;;;10.83;82.66;99271.84;5036155;28;20226;-86
2023/11/09 07:14:27;;;;;;;1.53;1.40;;;;;;;10.65;82.43;99273.41;5036689;28;20636;-86
2023/11/09 07:16:54;;;;;;;1.67;1.53;;;;;;;10.83;83.67;99269.25;5037754;28;20207;-84
2023/11/09 07:19:21;;;;;;;1.60;1.50;;;;;;;10.82;82.58;99270.13;5037252;28;20210;-86
2023/11/09 07:21:47;;;;;;;2.07;1.30;;;;;;;10.93;83.02;99276.66;5036410;28;20217;-83
2023/11/09 07:24:17;;;;;;;2.83;1.40;;;;;;;10.92;82.37;99277.56;5054251;28;20668;-83
2023/11/09 07:26:43;;;;;;;1.60;1.17;;;;;;;10.97;82.34;99290.44;5050843;28;20238;-84
2023/11/09 07:29:10;;;;;;;1.50;1.40;;;;;;;10.87;82.91;99269.06;5036933;28;20685;-86
2023/11/09 07:31:38;;;;;;;1.43;1.30;;;;;;;10.92;81.73;99272.34;5045607;28;20229;-87
2023/11/09 07:34:05;;;;;;;2.73;1.30;;;;;;;10.82;82.76;99259.69;5041896;28;20213;-86
2023/11/09 07:36:31;;;;;;;1.97;1.40;;;;;;;10.84;82.52;99255.25;5057637;28;20670;-85
2023/11/09 07:38:58;;;;;;;2.27;1.37;;;;;;;10.95;82.60;99265.31;5041525;28;20210;-86
2023/11/09 07:41:26;;;;;;;3.50;1.43;;;;;;;10.96;82.19;99270.47;5047800;28;20248;-86
2023/11/09 07:43:53;;;;;;;1.53;1.43;;;;;;;10.83;82.42;99285.75;5057665;28;20207;-88
2023/11/09 07:46:19;;;;;;;1.53;1.43;;;;;;;10.79;81.84;99272.88;5056114;28;20197;-85
2023/11/09 07:48:47;;;;;;;2.47;1.60;;;;;;;10.60;82.35;99299.66;5057886;28;20308;-85
2023/11/09 07:51:14;;;;;;;1.13;1.13;;;;;;;10.80;83.22;99259.78;5043401;28;20233;-86
2023/11/09 07:53:40;;;;;;;2.20;1.50;;;;;;;10.79;83.49;99247.63;5050431;28;20929;-87
2023/11/09 07:56:07;;;;;;;2.00;1.33;;;;;;;10.92;82.49;99251.47;5054110;28;20201;-86
2023/11/09 07:58:34;;;;;;;1.63;1.40;;;;;;;10.96;81.98;99269.59;5057828;28;20557;-85
2023/11/09 08:01:01;;;;;;;2.00;1.50;;;;;;;10.94;82.39;99269.66;5059058;28;20230;-86
2023/11/09 08:03:28;;;;;;;3.40;1.50;;;;;;;10.82;81.52;99285.81;5070146;28;20240;-84
2023/11/09 08:05:56;;;;;;;1.53;1.33;;;;;;;10.95;81.84;99291.41;5050816;28;20210;-84
2023/11/09 08:08:22;;;;;;;2.13;1.53;;;;;;;10.78;81.82;99287.66;5031638;28;20240;-85
2023/11/09 08:10:49;;;;;;;2.37;1.50;;;;;;;10.89;81.93;99276.84;5057600;28;20233;-86
2023/11/09 08:13:16;;;;;;;1.43;1.33;;;;;;;10.98;82.22;99286.94;5056966;28;20207;-85
2023/11/09 08:15:42;;;;;;;3.10;2.47;;;;;;;10.86;82.13;99288.25;5058172;28;20201;-85
2023/11/09 08:18:08;;;;;;;1.70;1.20;;;;;;;11.04;82.20;99283.19;5059561;28;20207;-86
2023/11/09 08:20:35;;;;;;;1.87;1.40;;;;;;;11.02;81.54;99296.34;5055850;28;20226;-85
2023/11/09 08:23:03;;;;;;;1.40;1.30;;;;;;;10.97;81.33;99303.50;5051874;28;20588;-84
2023/11/09 08:25:29;;;;;;;1.57;1.30;;;;;;;11.06;81.45;99308.38;5030419;28;20203;-86
2023/11/09 08:27:56;;;;;;;1.40;1.30;;;;;;;11.01;80.85;99319.91;5039972;28;20226;-87
2023/11/09 08:30:27;;;;;;;2.00;1.90;;;;;;;11.03;81.45;99307.63;5038628;28;20625;-87
2023/11/09 08:32:55;;;;;;;1.83;1.47;;;;;;;11.02;81.19;99316.34;5038818;28;20577;-85
2023/11/09 08:35:24;;;;;;;1.67;1.23;;;;;;;11.08;81.43;99321.34;5030608;28;20205;-86
2023/11/09 08:37:52;;;;;;;2.00;1.37;;;;;;;11.19;80.77;99324.38;5051537;28;20546;-86
2023/11/09 08:40:27;;;;;;;1.67;1.53;;;;;;;11.10;80.69;99336.06;5047342;28;20216;-86
2023/11/09 08:42:54;;;;;;;1.73;1.13;;;;;;;11.15;81.08;99342.88;5037677;28;20626;-87
2023/11/09 08:45:24;;;;;;;1.13;1.13;;;;;;;11.24;81.02;99348.59;5032053;28;20207;-88
2023/11/09 08:47:51;;;;;;;2.53;1.50;;;;;;;11.31;80.93;99350.03;5053627;28;20223;-86
2023/11/09 08:50:20;;;;;;;1.30;1.20;;;;;;;11.37;81.09;99335.88;5038056;28;20240;-88
2023/11/09 08:52:47;;;;;;;2.20;1.63;;;;;;;11.27;80.68;99348.44;5038166;28;20256;-85
2023/11/09 08:55:14;;;;;;;1.60;1.50;;;;;;;11.36;81.02;99349.00;5038223;28;20228;-86
2023/11/09 08:57:43;;;;;;;1.43;1.33;;;;;;;11.31;80.96;99360.47;5034301;28;20292;-87
2023/11/09 09:00:11;;;;;;;1.97;1.30;;;;;;;11.21;80.58;99359.13;5058987;28;20221;-85
2023/11/09 09:02:44;;;;;;;1.80;1.40;;;;;;;11.34;81.06;99341.22;5040457;28;20232;-84
2023/11/09 09:05:17;;;;;;;1.40;1.30;;;;;;;11.32;80.86;99353.50;5033132;28;20573;-83
2023/11/09 09:07:44;;;;;;;1.47;1.37;;;;;;;11.28;81.98;99337.09;5037098;28;20285;-80
2023/11/09 09:10:15;;;;;;;1.30;1.20;;;;;;;11.41;81.94;99328.75;5049017;28;20226;-79
2023/11/09 09:12:44;;;;;;;2.10;1.30;;;;;;;11.55;82.48;99320.38;5050394;28;20213;-80
2023/11/09 09:15:16;;;;;;;2.00;1.03;;;;;;;11.45;83.24;99314.66;5047459;28;20226;-80
2023/11/09 09:17:42;;;;;;;1.30;1.20;;;;;;;11.39;83.64;99302.69;5036206;28;20285;-82
2023/11/09 09:20:12;;;;;;;3.30;1.40;;;;;;;11.38;85.61;99250.50;5032408;28;20222;-82
2023/11/09 09:22:39;;;;;;;2.13;1.23;;;;;;;11.33;85.57;99243.69;5027419;28;20271;-81
2023/11/09 09:25:10;;;;;;;1.50;1.40;;;;;;;11.38;85.45;99242.66;5026639;28;20253;-80
2023/11/09 09:27:37;;;;;;;1.40;1.20;;;;;;;11.45;85.58;99228.44;5029783;28;20279;-83
2023/11/09 09:30:10;;;;;;;1.00;1.00;;;;;;;11.44;85.49;99213.69;5027672;28;20218;-82
2023/11/09 09:32:37;;;;;;;1.80;1.30;;;;;;;11.39;84.83;99233.91;5030025;28;20587;-82
2023/11/09 09:35:06;;;;;;;1.60;1.50;;;;;;;11.29;85.35;99221.22;5026798;28;20206;-83
2023/11/09 09:37:32;;;;;;;1.37;1.27;;;;;;;11.30;85.63;99220.31;5028913;28;20292;-81
2023/11/09 09:39:59;;;;;;;1.03;1.00;;;;;;;10.97;85.02;99216.47;5026198;28;20619;-82
2023/11/09 09:42:26;;;;;;;2.27;1.10;;;;;;;11.18;86.21;99205.16;5030986;28;20198;-83
2023/11/09 09:44:53;;;;;;;1.60;1.00;;;;;;;11.07;86.44;99197.75;5045762;28;20190;-81
2023/11/09 09:47:21;;;;;;;1.60;1.10;;;;;;;11.19;86.50;99190.34;5037869;28;20207;-82
2023/11/09 09:49:50;;;;;;;0.97;0.87;;;;;;;10.95;86.79;99194.81;5026447;28;20222;-82
2023/11/09 09:52:17;;;;;;;1.70;1.17;;;;;;;11.23;87.88;99168.41;5031490;28;20268;-83
2023/11/09 09:54:44;;;;;;;0.90;0.90;;;;;;;11.11;87.30;99175.81;5036696;28;20205;-82
2023/11/09 09:57:11;;;;;;;1.53;1.00;;;;;;;11.15;88.05;99145.22;5030947;28;20210;-83
2023/11/09 09:59:38;;;;;;;1.50;1.00;;;;;;;11.13;87.48;99168.78;5035209;28;20201;-81
2023/11/09 10:02:10;;;;;;;0.80;0.80;;;;;;;10.88;86.52;99170.69;5031568;28;20210;-85
2023/11/09 10:04:38;;;;;;;0.90;0.90;;;;;;;11.12;87.21;99159.25;5030959;28;20220;-83
2023/11/09 10:07:05;;;;;;;0.80;0.80;;;;;;;11.13;87.25;99158.31;5025187;28;20229;-85
2023/11/09 10:09:31;;;;;;;1.60;1.00;;;;;;;11.15;88.38;99149.59;5032455;28;20249;-82
2023/11/09 10:11:58;;;;;;;0.77;0.77;;;;;;;11.25;88.15;99137.84;5034943;28;20228;-83
2023/11/09 10:14:26;;;;;;;2.30;0.80;;;;;;;11.09;87.28;99156.75;5034073;28;20202;-85
2023/11/09 10:16:53;;;;;;;1.00;0.90;;;;;;;11.29;87.61;99139.41;5032958;28;20270;-84
2023/11/09 10:19:46;;;;;;;0.80;0.80;;;;;;;11.48;87.58;99134.25;5031339;28;20695;-82
2023/11/09 10:22:12;;;;;;;0.70;0.70;;;;;;;11.43;86.84;99152.72;5032155;28;20210;-84
2023/11/09 10:24:39;;;;;;;0.93;0.80;;;;;;;11.42;87.11;99158.88;5037447;28;20210;-85
2023/11/09 10:27:08;;;;;;;0.60;0.60;;;;;;;11.31;86.36;99174.97;5040098;28;20247;-86
2023/11/09 10:29:38;;;;;;;0.67;0.60;;;;;;;11.29;86.22;99182.03;5048443;28;20239;-86
2023/11/09 10:32:19;;;;;;;0.60;0.60;;;;;;;11.45;87.47;99153.50;5035924;28;20211;-84
2023/11/09 10:34:46;;;;;;;0.80;0.80;;;;;;;11.42;86.80;99151.03;5046469;28;20211;-86
2023/11/09 10:37:14;;;;;;;0.80;0.80;;;;;;;11.56;86.41;99166.13;5039056;28;20209;-86
2023/11/09 10:39:42;;;;;;;1.08;0.85;;;;;;;11.62;86.24;99167.63;5048686;28;20434;-84
2023/11/09 10:42:11;;;;;;;0.70;0.70;;;;;;;11.76;85.43;99188.75;5039931;28;20627;-86
2023/11/09 10:44:42;;;;;;;0.73;0.73;;;;;;;11.57;84.88;99200.94;5036579;28;20295;-85
2023/11/09 10:47:09;;;;;;;0.50;0.50;;;;;;;11.76;84.13;99217.53;5031630;28;20287;-83
2023/11/09 10:49:37;;;;;;;1.07;0.70;;;;;;;11.85;83.28;99237.19;5037389;28;20281;-86
2023/11/09 10:52:08;;;;;;;0.93;0.70;;;;;;;11.90;83.53;99241.31;5042254;28;20203;-86
2023/11/09 10:54:37;;;;;;;0.77;0.77;;;;;;;11.95;83.40;99262.03;5050032;28;20209;-87
2023/11/09 10:57:09;;;;;;;1.17;0.80;;;;;;;11.95;83.44;99254.19;5037941;28;20203;-85
2023/11/09 10:59:40;;;;;;;0.70;0.70;;;;;;;11.96;82.34;99268.97;5041610;28;20633;-80
2023/11/09 11:02:15;;;;;;;1.57;0.70;;;;;;;11.90;81.72;99296.25;5051205;28;20206;-85
2023/11/09 11:04:49;;;;;;;0.63;0.63;;;;;;;11.94;81.88;99302.19;5037209;28;20317;-84
2023/11/09 11:07:20;;;;;;;0.60;0.60;;;;;;;11.95;82.45;99301.25;5036039;28;20671;-85
2023/11/09 11:09:47;;;;;;;1.20;1.00;;;;;;;11.79;81.75;99295.81;5040106;28;20319;-84
2023/11/09 11:12:16;;;;;;;0.80;0.80;;;;;;;11.62;82.32;99283.47;5057575;28;20201;-84
2023/11/09 11:14:46;;;;;;;0.70;0.70;;;;;;;11.52;83.69;99266.47;5040422;28;20221;-85
2023/11/09 11:17:25;;;;;;;0.70;0.70;;;;;;;11.68;83.31;99257.06;5035842;28;20285;-84
2023/11/09 11:20:27;;;;;;;0.90;0.80;;;;;;;11.77;83.06;99254.97;5028312;28;20232;-83
2023/11/09 11:23:32;;;;;;;0.73;0.73;;;;;;;11.85;82.98;99250.25;5031138;28;20214;-85
2023/11/09 11:26:04;;;;;;;0.73;0.70;;;;;;;11.87;82.41;99266.72;5031751;28;20695;-83
2023/11/09 11:28:32;;;;;;;0.90;0.90;;;;;;;11.85;82.20;99261.56;5030338;28;20222;-84
2023/11/09 11:31:02;;;;;;;0.80;0.80;;;;;;;11.81;82.38;99270.44;5027643;28;20241;-84
2023/11/09 11:33:30;;;;;;;0.97;0.73;;;;;;;11.88;82.38;99276.28;5028924;28;21596;-84
2023/11/09 11:35:58;;;;;;;0.77;0.77;;;;;;;11.79;82.58;99280.13;5030612;28;20202;-83
2023/11/09 11:38:29;;;;;;;0.93;0.90;;;;;;;11.84;82.53;99275.56;5030572;28;20722;-86
2023/11/09 11:41:01;;;;;;;1.13;0.93;;;;;;;11.80;82.16;99281.00;5031275;28;20284;-85
2023/11/09 11:43:35;;;;;;;0.70;0.70;;;;;;;11.79;82.65;99277.50;5032524;28;20203;-86
2023/11/09 11:46:07;;;;;;;0.80;0.80;;;;;;;11.67;83.10;99275.41;5033300;28;20203;-85